Erie, ND (58029)

6:36 PM CST on February 08, 2016 (GMT -0600)
PFS Hunter | | Change Station
CLOSE
Current Station
Personal Weather Station
Location: Hunter, ND
Elevation: 974 ft
Nearby Weather Stations

Elev 974 ft 47.15 °N, 97.21 °W | Updated 18 seconds ago

Partly Cloudy
Partly Cloudy
9.7 °F
Feels Like -10 °F
N
22.4
Wind Variable Wind from NNE
Gusts 30.0 mph

Today
High -- | Low -- °F
--% Chance of Precip.
Yesterday
High -- | Low -- °F
Precip. -- in
Pressure 30.23 in
Visibility 1.2 miles
Clouds Few 1600 ft
Overcast 3000 ft
Windchill -10 °F
Dew Point 6 °F
Humidity 83%
Rainfall 0.00 in
Snow Depth Not available.
7:45 AM 5:42 PM
New Moon, 0% visible
SPECI KFAR 090006Z 36027G33KT 1 1/4SM -SN FEW016 OVC030 M11/M15 A3023 RMK AO2 PK WND 36033/0006 UPB2358E2359SNB2359 P0000 T11111150
Pressure 30.23 in
Visibility 1.2 miles
Clouds Few 1600 ft
Overcast 3000 ft
Windchill -10 °F
Dew Point 6 °F
Humidity 83%
Rainfall 0.00 in
Snow Depth Not available.
7:45 AM 5:42 PM
New Moon, 0% visible
SPECI KFAR 090006Z 36027G33KT 1 1/4SM -SN FEW016 OVC030 M11/M15 A3023 RMK AO2 PK WND 36033/0006 UPB2358E2359SNB2359 P0000 T11111150

10-Day Weather Forecast

Almanac

Astronomy

Feb. 08, 2016 Rise Set
Actual Time
Civil Twilight
Nautical Twilight
Astronomical Twilight
Moon
Length of Visible Light
Length of Day
Tomorrow will be .
, % of the Moon is Illuminated

Today's Extremes

State Highs State Lows

Community

WunderPhotos

Upload Photos

1,891,527 photos uploaded!

WunderBlog® & News

Nearby

Air Quality

  Air Quality AQ Index Pollutant
Not available.

Snow Depth

Station Depth Elevation

Earthquake Activity

City Distance Mag. Time & Date
Minimum magnitude displayed is 2.5.

Coastal Water Temperatures

Place Temperature

Stations

Nearby Weather Stations

Station Location Temp. Windchill Dew Point Humidity Wind Precip. Elev Updated Type
                   

Watches & Warnings

There are currently no watches in effect.